Terminal Aerodrome Forecast
Issued by NWS Dallas/Fort Worth, TX

Home | Current Version | Previous Version | Text Only | Print | Product List | Glossary On
Versions: 1 2 3 4 5 6 7 8 9 10 11 12 13 14 15 16 17 18 19 20 21 22 23 24 25 26 27 28 29 30 31
831
FTUS44 KFWD 282057 AAB
TAFDFW
TAF AMD
KDFW 282057Z 2821/2924 14016KT 6SM HZ VCSH BKN035 BKN040
     FM290100 14015KT P6SM SCT035 BKN050
     FM290800 15011KT 4SM -TSRA BKN020 OVC045CB
     FM291100 16013KT P6SM VCSH BKN050
     FM291500 19013KT P6SM SCT080 BKN250=

USA.gov is the U.S. government's official web portal to all federal, state and local government web resources and services.